KBCE

Bryce Canyon Airport

Bryce Canyon, Utah, USA
KBCE 241733Z 2418/2518 28017G24KT P6SM BKN100 FM250000 28010KT P6SM SKC FM251500 04008KT P6SM SKC
Issued Valid From Valid To
Sep-24 @ 17:33 UTC
(2 hours ago)
Sep-24 @ 18:00 UTC
(an hour ago)
Sep-25 @ 18:00 UTC
(in 23 hours)
Sep-24 @ 18:00 to Sep-25 @ 00:00
KBCE 241733Z 2418/2518 28017G24KT P6SM BKN100
Wind Visibility Clouds
280° at 17 knots
 Gusting to 24 knots
Greater than 6 miles
  • Broken at 10,000' AGL
From Sep-25 @ 00:00 to Sep-25 @ 15:00
FM250000 28010KT P6SM SKC
Wind Visibility Clouds
280° at 10 knots Greater than 6 miles
  • Clear skies
From Sep-25 @ 15:00 to Sep-25 @ 18:00
FM251500 04008KT P6SM SKC
Wind Visibility Clouds
40° at 8 knots Greater than 6 miles
  • Clear skies
KBCE 241733Z 2418/2518 28017G24KT P6SM BKN100 FM250000 28010KT P6SM SKC FM251500 04008KT P6SM SKC
Issued Sep-24 @ 17:33 UTC
(2 hours ago)
Valid From Sep-24 @ 18:00 UTC
(an hour ago)
Valid To Sep-25 @ 18:00 UTC
(in 23 hours)
Sep-24 @ 18:00 - Sep-25 @ 00:00
Wind Visibility
280° at 17 knots
 Gusting to 24 knots
Greater than 6 miles
Clouds
  • Broken at 10,000' AGL
From Sep-25 @ 00:00 - Sep-25 @ 15:00
Wind Visibility
280° at 10 knots Greater than 6 miles
Clouds
  • Clear skies
From Sep-25 @ 15:00 - Sep-25 @ 18:00
Wind Visibility
40° at 8 knots Greater than 6 miles
Clouds
  • Clear skies